createdAt,value
2017-07-04T00:00:31.587Z,1018.9
2017-07-04T00:01:32.989Z,1018.8
2017-07-04T00:02:34.391Z,1018.9
2017-07-04T00:03:35.795Z,1018.9
2017-07-04T00:04:37.198Z,1018.9
2017-07-04T00:05:38.601Z,1018.9
2017-07-04T00:06:40.004Z,1018.9
2017-07-04T00:07:41.414Z,1018.9
2017-07-04T00:08:42.813Z,1018.9
2017-07-04T00:09:44.712Z,1018.8
2017-07-04T00:10:46.398Z,1018.8
2017-07-04T00:11:47.802Z,1018.8
2017-07-04T00:12:49.207Z,1018.9
2017-07-04T00:13:50.611Z,1018.8
2017-07-04T00:14:52.016Z,1018.8
2017-07-04T00:15:53.432Z,1018.8
2017-07-04T00:16:54.822Z,1018.8
2017-07-04T00:17:56.224Z,1018.8
2017-07-04T00:18:57.628Z,1018.8
2017-07-04T00:19:59.031Z,1018.8
2017-07-04T00:21:00.437Z,1018.8
2017-07-04T00:22:02.225Z,1018.8
2017-07-04T00:23:03.925Z,1018.8
2017-07-04T00:24:05.328Z,1018.7
2017-07-04T00:25:06.734Z,1018.8
2017-07-04T00:26:08.136Z,1018.8
2017-07-04T00:27:09.540Z,1018.7
2017-07-04T00:28:10.946Z,1018.7
2017-07-04T00:29:12.350Z,1018.7
2017-07-04T00:30:13.753Z,1018.7
2017-07-04T00:31:15.184Z,1018.7
2017-07-04T00:32:16.587Z,1018.7
2017-07-04T00:33:18.488Z,1018.7
2017-07-04T00:34:19.892Z,1018.7
2017-07-04T00:35:21.294Z,1018.7
2017-07-04T00:36:22.701Z,1018.7
2017-07-04T00:37:24.102Z,1018.8
2017-07-04T00:38:25.506Z,1018.8
2017-07-04T00:39:26.907Z,1018.8
2017-07-04T00:40:28.313Z,1018.8
2017-07-04T00:41:29.718Z,1018.8
2017-07-04T00:42:31.120Z,1018.8
2017-07-04T00:43:32.528Z,1018.8
2017-07-04T00:44:34.341Z,1018.8
2017-07-04T00:45:36.236Z,1018.8
2017-07-04T00:46:37.643Z,1018.8
2017-07-04T00:47:39.051Z,1018.8
2017-07-04T00:48:40.471Z,1018.7
2017-07-04T00:49:41.876Z,1018.8
2017-07-04T00:50:43.279Z,1018.7
2017-07-04T00:51:44.688Z,1018.8
2017-07-04T00:52:46.100Z,1018.7
2017-07-04T00:53:47.504Z,1018.7
2017-07-04T00:54:48.908Z,1018.7
2017-07-04T00:55:50.310Z,1018.7
2017-07-04T00:56:52.223Z,1018.7
2017-07-04T00:57:54.117Z,1018.7
2017-07-04T00:58:55.522Z,1018.7
2017-07-04T00:59:56.925Z,1018.7
2017-07-04T01:00:58.326Z,1018.7
2017-07-04T01:01:59.730Z,1018.7
2017-07-04T01:03:01.126Z,1018.7
2017-07-04T01:04:02.545Z,1018.7
2017-07-04T01:05:03.949Z,1018.7
2017-07-04T01:06:05.349Z,1018.7
2017-07-04T01:07:06.752Z,1018.7
2017-07-04T01:08:08.154Z,1018.7
2017-07-04T01:09:09.561Z,1018.7
2017-07-04T01:10:10.965Z,1018.7
2017-07-04T01:11:12.868Z,1018.7
2017-07-04T01:12:14.272Z,1018.7
2017-07-04T01:13:15.670Z,1018.7
2017-07-04T01:14:17.076Z,1018.7
2017-07-04T01:15:18.477Z,1018.7
2017-07-04T01:16:19.881Z,1018.7
2017-07-04T01:17:21.285Z,1018.7
2017-07-04T01:18:22.690Z,1018.7
2017-07-04T01:19:24.524Z,1018.7
2017-07-04T01:20:26.408Z,1018.7
2017-07-04T01:21:27.810Z,1018.7
2017-07-04T01:22:29.215Z,1018.7
2017-07-04T01:23:30.618Z,1018.7
2017-07-04T01:24:32.023Z,1018.7
2017-07-04T01:25:33.427Z,1018.7
2017-07-04T01:26:34.833Z,1018.7
2017-07-04T01:27:36.233Z,1018.7
2017-07-04T01:28:37.640Z,1018.7
2017-07-04T01:29:39.044Z,1018.7
2017-07-04T01:30:40.466Z,1018.7
2017-07-04T01:31:42.539Z,1018.6
2017-07-04T01:32:44.472Z,1018.6
2017-07-04T01:33:45.877Z,1018.7
2017-07-04T01:34:47.280Z,1018.6
2017-07-04T01:35:48.685Z,1018.6
2017-07-04T01:36:50.087Z,1018.6
2017-07-04T01:37:51.492Z,1018.6
2017-07-04T01:38:52.895Z,1018.6
2017-07-04T01:39:54.302Z,1018.6
2017-07-04T01:40:55.705Z,1018.7
2017-07-04T01:41:57.106Z,1018.7
2017-07-04T01:42:58.510Z,1018.7
2017-07-04T01:44:00.411Z,1018.7
2017-07-04T01:45:02.312Z,1018.7
2017-07-04T01:46:03.716Z,1018.7
2017-07-04T01:47:05.120Z,1018.7
2017-07-04T01:48:06.527Z,1018.6
2017-07-04T01:49:07.927Z,1018.7
2017-07-04T01:50:09.329Z,1018.7
2017-07-04T01:51:10.734Z,1018.7
2017-07-04T01:52:12.134Z,1018.7
2017-07-04T01:53:13.539Z,1018.7
2017-07-04T01:54:14.943Z,1018.7
2017-07-04T01:55:16.827Z,1018.7
2017-07-04T01:56:18.228Z,1018.7
2017-07-04T01:57:19.630Z,1018.7
2017-07-04T01:58:21.031Z,1018.7
2017-07-04T01:59:22.439Z,1018.7
2017-07-04T02:00:23.842Z,1018.7
2017-07-04T02:01:25.247Z,1018.7
2017-07-04T02:02:26.654Z,1018.7
2017-07-04T02:03:28.055Z,1018.7
2017-07-04T02:04:29.459Z,1018.7
2017-07-04T02:05:30.858Z,1018.7
2017-07-04T02:06:32.263Z,1018.6
2017-07-04T02:07:34.346Z,1018.7
2017-07-04T02:08:35.751Z,1018.7
2017-07-04T02:09:37.160Z,1018.7
2017-07-04T02:10:38.561Z,1018.7
2017-07-04T02:11:39.963Z,1018.7
2017-07-04T02:12:41.366Z,1018.7
2017-07-04T02:13:42.774Z,1018.7
2017-07-04T02:14:44.177Z,1018.7
2017-07-04T02:15:45.582Z,1018.7
2017-07-04T02:16:46.986Z,1018.7
2017-07-04T02:17:48.387Z,1018.7
2017-07-04T02:18:49.794Z,1018.8
2017-07-04T02:19:51.701Z,1018.7
2017-07-04T02:20:53.107Z,1018.7
2017-07-04T02:21:54.560Z,1018.7
2017-07-04T02:22:55.918Z,1018.7
2017-07-04T02:23:57.323Z,1018.7
2017-07-04T02:24:58.726Z,1018.7
2017-07-04T02:26:00.134Z,1018.7
2017-07-04T02:27:01.536Z,1018.7
2017-07-04T02:28:02.939Z,1018.7
2017-07-04T02:29:04.345Z,1018.6
2017-07-04T02:30:05.750Z,1018.7
2017-07-04T02:31:07.154Z,1018.7
2017-07-04T02:32:09.041Z,1018.7
2017-07-04T02:33:10.443Z,1018.7
2017-07-04T02:34:11.847Z,1018.7
2017-07-04T02:35:13.250Z,1018.7
2017-07-04T02:36:14.652Z,1018.7
2017-07-04T02:37:16.059Z,1018.7
2017-07-04T02:38:17.464Z,1018.7
2017-07-04T02:39:18.865Z,1018.7
2017-07-04T02:40:20.273Z,1018.7
2017-07-04T02:41:21.676Z,1018.7
2017-07-04T02:42:23.089Z,1018.8
2017-07-04T02:43:24.492Z,1018.7
2017-07-04T02:44:25.906Z,1018.7
2017-07-04T02:45:27.312Z,1018.7
2017-07-04T02:46:28.714Z,1018.8
2017-07-04T02:47:30.118Z,1018.7
2017-07-04T02:48:31.520Z,1018.7
2017-07-04T02:49:32.926Z,1018.7
2017-07-04T02:50:34.353Z,1018.7
2017-07-04T02:51:35.755Z,1018.7
2017-07-04T02:52:37.162Z,1018.8
2017-07-04T02:53:38.563Z,1018.8
2017-07-04T02:54:40.444Z,1018.8
2017-07-04T02:55:41.848Z,1018.8
2017-07-04T02:56:43.254Z,1018.9
2017-07-04T02:57:44.656Z,1018.9
2017-07-04T02:58:46.061Z,1018.9
2017-07-04T02:59:47.465Z,1018.9
2017-07-04T03:00:48.868Z,1018.9
2017-07-04T03:01:50.269Z,1018.9
2017-07-04T03:02:52.408Z,1018.9
2017-07-04T03:03:53.811Z,1018.9
2017-07-04T03:04:55.216Z,1018.9
2017-07-04T03:05:56.620Z,1018.9
2017-07-04T03:06:58.899Z,1018.9
2017-07-04T03:08:00.294Z,1018.9
2017-07-04T03:09:01.696Z,1018.9
2017-07-04T03:10:03.099Z,1018.8
2017-07-04T03:11:04.503Z,1018.8
2017-07-04T03:12:05.910Z,1018.8
2017-07-04T03:13:07.313Z,1018.9
2017-07-04T03:14:08.724Z,1018.8
2017-07-04T03:15:10.119Z,1018.8
2017-07-04T03:16:11.520Z,1018.8
2017-07-04T03:17:12.925Z,1018.8
2017-07-04T03:18:14.331Z,1018.8
2017-07-04T03:19:16.176Z,1018.8
2017-07-04T03:20:17.597Z,1018.8
2017-07-04T03:21:19.010Z,1018.8
2017-07-04T03:22:20.411Z,1018.8
2017-07-04T03:23:21.813Z,1018.7
2017-07-04T03:24:23.248Z,1018.8
2017-07-04T03:25:24.657Z,1018.8
2017-07-04T03:26:26.062Z,1018.7
2017-07-04T03:27:27.466Z,1018.8
2017-07-04T03:28:29.729Z,1018.7
2017-07-04T03:29:31.128Z,1018.7
2017-07-04T03:30:32.533Z,1018.7
2017-07-04T03:31:33.940Z,1018.7
2017-07-04T03:32:35.339Z,1018.7
2017-07-04T03:33:36.784Z,1018.7
2017-07-04T03:34:38.191Z,1018.6
2017-07-04T03:35:39.595Z,1018.6
2017-07-04T03:36:40.996Z,1018.6
2017-07-04T03:37:42.399Z,1018.6
2017-07-04T03:38:44.416Z,1018.6
2017-07-04T03:39:46.325Z,1018.6
2017-07-04T03:40:48.225Z,1018.6
2017-07-04T03:41:49.630Z,1018.6
2017-07-04T03:42:51.036Z,1018.6
2017-07-04T03:43:52.437Z,1018.6
2017-07-04T03:44:53.839Z,1018.6
2017-07-04T03:45:55.247Z,1018.6
2017-07-04T03:46:56.652Z,1018.6
2017-07-04T03:47:58.056Z,1018.6
2017-07-04T03:48:59.462Z,1018.7
2017-07-04T03:50:00.876Z,1018.7
2017-07-04T03:51:02.276Z,1018.7
2017-07-04T03:52:04.180Z,1018.7
2017-07-04T03:53:06.070Z,1018.7
2017-07-04T03:54:07.475Z,1018.7
2017-07-04T03:55:08.878Z,1018.7
2017-07-04T03:56:10.283Z,1018.8
2017-07-04T03:57:12.419Z,1018.7
2017-07-04T03:58:13.833Z,1018.8
2017-07-04T03:59:15.237Z,1018.8
2017-07-04T04:00:16.647Z,1018.8
2017-07-04T04:01:18.050Z,1018.8
2017-07-04T04:02:19.455Z,1018.8
2017-07-04T04:03:20.858Z,1018.8
2017-07-04T04:04:22.264Z,1018.8
2017-07-04T04:05:23.671Z,1018.8
2017-07-04T04:06:25.570Z,1018.8
2017-07-04T04:07:27.033Z,1018.8
2017-07-04T04:08:28.439Z,1018.8
2017-07-04T04:09:29.853Z,1018.9
2017-07-04T04:10:31.249Z,1018.9
2017-07-04T04:11:32.653Z,1018.9
2017-07-04T04:12:34.056Z,1019.0
2017-07-04T04:13:35.459Z,1018.9
2017-07-04T04:14:36.858Z,1019.0
2017-07-04T04:15:38.946Z,1019.0
2017-07-04T04:16:40.348Z,1019.1
2017-07-04T04:17:41.760Z,1019.1
2017-07-04T04:18:43.165Z,1019.1
2017-07-04T04:19:44.567Z,1019.1
2017-07-04T04:20:45.969Z,1019.1
2017-07-04T04:21:47.372Z,1019.1
2017-07-04T04:22:48.776Z,1019.1
2017-07-04T04:23:50.179Z,1019.1
2017-07-04T04:24:51.585Z,1019.1
2017-07-04T04:25:52.989Z,1019.1
2017-07-04T04:26:54.880Z,1019.1
2017-07-04T04:27:56.402Z,1019.1
2017-07-04T04:28:57.814Z,1019.2
2017-07-04T04:29:59.218Z,1019.1
2017-07-04T04:31:00.621Z,1019.1
2017-07-04T04:32:02.026Z,1019.1
2017-07-04T04:33:03.439Z,1019.1
2017-07-04T04:34:04.853Z,1019.1
2017-07-04T04:35:06.254Z,1019.1
2017-07-04T04:36:07.657Z,1019.1
2017-07-04T04:37:09.064Z,1019.1
2017-07-04T04:38:10.466Z,1019.1
2017-07-04T04:39:12.369Z,1019.1
2017-07-04T04:40:13.772Z,1019.1
2017-07-04T04:41:15.173Z,1019.1
2017-07-04T04:42:16.574Z,1019.2
2017-07-04T04:43:17.978Z,1019.2
2017-07-04T04:44:19.380Z,1019.2
2017-07-04T04:45:20.784Z,1019.2
2017-07-04T04:46:22.189Z,1019.2
2017-07-04T04:47:23.594Z,1019.2
2017-07-04T04:48:25.006Z,1019.2
2017-07-04T04:49:26.408Z,1019.2
2017-07-04T04:50:27.809Z,1019.2
2017-07-04T04:51:29.999Z,1019.2
2017-07-04T04:52:31.405Z,1019.2
2017-07-04T04:53:32.811Z,1019.2
2017-07-04T04:54:34.216Z,1019.2
2017-07-04T04:55:35.615Z,1019.2
2017-07-04T04:56:37.019Z,1019.2
2017-07-04T04:57:38.932Z,1019.2
2017-07-04T04:58:40.339Z,1019.2
2017-07-04T04:59:41.739Z,1019.2
2017-07-04T05:00:43.143Z,1019.2
2017-07-04T05:01:45.031Z,1019.2
2017-07-04T05:02:46.717Z,1019.3
2017-07-04T05:03:48.121Z,1019.2
2017-07-04T05:04:49.523Z,1019.3
2017-07-04T05:05:50.925Z,1019.2
2017-07-04T05:06:52.330Z,1019.2
2017-07-04T05:07:53.737Z,1019.2
2017-07-04T05:08:55.142Z,1019.2
2017-07-04T05:09:56.542Z,1019.2
2017-07-04T05:10:57.944Z,1019.2
2017-07-04T05:11:59.354Z,1019.3
2017-07-04T05:13:00.756Z,1019.3
2017-07-04T05:14:02.637Z,1019.3
2017-07-04T05:15:04.326Z,1019.3
2017-07-04T05:16:05.730Z,1019.3
2017-07-04T05:17:07.131Z,1019.3
2017-07-04T05:18:08.535Z,1019.3
2017-07-04T05:19:09.936Z,1019.3
2017-07-04T05:20:11.340Z,1019.3
2017-07-04T05:21:12.744Z,1019.3
2017-07-04T05:22:14.148Z,1019.3
2017-07-04T05:23:15.553Z,1019.3
2017-07-04T05:24:16.954Z,1019.2
2017-07-04T05:25:18.754Z,1019.2
2017-07-04T05:26:20.650Z,1019.3
2017-07-04T05:27:22.053Z,1019.3
2017-07-04T05:28:23.462Z,1019.3
2017-07-04T05:29:24.865Z,1019.3
2017-07-04T05:30:26.271Z,1019.3
2017-07-04T05:31:27.679Z,1019.3
2017-07-04T05:32:29.084Z,1019.3
2017-07-04T05:33:30.487Z,1019.3
2017-07-04T05:34:31.891Z,1019.3
2017-07-04T05:35:33.995Z,1019.3
2017-07-04T05:36:35.404Z,1019.3
2017-07-04T05:37:36.807Z,1019.3
2017-07-04T05:38:38.213Z,1019.3
2017-07-04T05:39:39.613Z,1019.3
2017-07-04T05:40:41.018Z,1019.3
2017-07-04T05:41:42.430Z,1019.3
2017-07-04T05:42:43.834Z,1019.3
2017-07-04T05:43:45.240Z,1019.3
2017-07-04T05:44:46.645Z,1019.3
2017-07-04T05:45:48.082Z,1019.4
2017-07-04T05:46:49.523Z,1019.4
2017-07-04T05:47:51.429Z,1019.4
2017-07-04T05:48:53.298Z,1019.4
2017-07-04T05:49:54.700Z,1019.4
2017-07-04T05:50:56.104Z,1019.4
2017-07-04T05:51:57.511Z,1019.4
2017-07-04T05:52:58.911Z,1019.4
2017-07-04T05:54:00.312Z,1019.4
2017-07-04T05:55:01.717Z,1019.3
2017-07-04T05:56:03.122Z,1019.4
2017-07-04T05:57:04.526Z,1019.4
2017-07-04T05:58:05.930Z,1019.4
2017-07-04T05:59:07.338Z,1019.3
2017-07-04T06:00:09.601Z,1019.3
2017-07-04T06:01:10.999Z,1019.4
2017-07-04T06:02:12.408Z,1019.4
2017-07-04T06:03:13.814Z,1019.4
2017-07-04T06:04:15.220Z,1019.4
2017-07-04T06:05:16.624Z,1019.4
2017-07-04T06:06:18.029Z,1019.4
2017-07-04T06:07:19.433Z,1019.5
2017-07-04T06:08:20.833Z,1019.5
2017-07-04T06:09:22.238Z,1019.5
2017-07-04T06:10:23.641Z,1019.5
2017-07-04T06:11:25.047Z,1019.5
2017-07-04T06:12:26.955Z,1019.5
2017-07-04T06:13:28.358Z,1019.5
2017-07-04T06:14:29.759Z,1019.6
2017-07-04T06:15:31.161Z,1019.5
2017-07-04T06:16:32.564Z,1019.6
2017-07-04T06:17:33.977Z,1019.6
2017-07-04T06:18:35.385Z,1019.6
2017-07-04T06:19:36.786Z,1019.6
2017-07-04T06:20:38.200Z,1019.5
2017-07-04T06:21:39.604Z,1019.6
2017-07-04T06:22:41.490Z,1019.6
2017-07-04T06:23:42.894Z,1019.6
2017-07-04T06:24:44.311Z,1019.6
2017-07-04T06:25:45.714Z,1019.6
2017-07-04T06:26:47.117Z,1019.6
2017-07-04T06:27:48.524Z,1019.6
2017-07-04T06:28:49.925Z,1019.6
2017-07-04T06:29:51.327Z,1019.6
2017-07-04T06:30:52.729Z,1019.7
2017-07-04T06:31:54.134Z,1019.7
2017-07-04T06:32:55.539Z,1019.7
2017-07-04T06:33:56.942Z,1019.7
2017-07-04T06:34:59.041Z,1019.7
2017-07-04T06:36:00.444Z,1019.7
2017-07-04T06:37:01.849Z,1019.7
2017-07-04T06:38:03.248Z,1019.7
2017-07-04T06:39:04.653Z,1019.7
2017-07-04T06:40:06.057Z,1019.7
2017-07-04T06:41:07.464Z,1019.7
2017-07-04T06:42:08.867Z,1019.7
2017-07-04T06:43:10.269Z,1019.7
2017-07-04T06:44:11.673Z,1019.7
2017-07-04T06:45:13.079Z,1019.7
2017-07-04T06:46:14.483Z,1019.7
2017-07-04T06:47:16.372Z,1019.7
2017-07-04T06:48:17.777Z,1019.7
2017-07-04T06:49:19.205Z,1019.7
2017-07-04T06:50:20.606Z,1019.7
2017-07-04T06:51:22.010Z,1019.8
2017-07-04T06:52:23.474Z,1019.8
2017-07-04T06:53:24.884Z,1019.8
2017-07-04T06:54:26.286Z,1019.8
2017-07-04T06:55:27.691Z,1019.8
2017-07-04T06:56:29.101Z,1019.8
2017-07-04T06:57:30.504Z,1019.8
2017-07-04T06:58:31.906Z,1019.8
2017-07-04T06:59:33.791Z,1019.8
2017-07-04T07:00:35.193Z,1019.9
2017-07-04T07:01:36.597Z,1019.9
2017-07-04T07:02:38.680Z,1019.9
2017-07-04T07:03:40.103Z,1019.9
2017-07-04T07:04:41.506Z,1019.9
2017-07-04T07:05:42.904Z,1019.9
2017-07-04T07:06:44.315Z,1019.9
2017-07-04T07:07:45.711Z,1019.9
2017-07-04T07:08:47.117Z,1019.9
2017-07-04T07:09:49.203Z,1020.0
2017-07-04T07:10:50.619Z,1019.9
2017-07-04T07:11:52.022Z,1019.9
2017-07-04T07:12:53.425Z,1019.9
2017-07-04T07:13:54.826Z,1019.9
2017-07-04T07:14:56.236Z,1020.0
2017-07-04T07:15:57.636Z,1020.0
2017-07-04T07:16:59.042Z,1020.0
2017-07-04T07:18:00.447Z,1020.0
2017-07-04T07:19:01.849Z,1020.0
2017-07-04T07:20:03.252Z,1020.0
2017-07-04T07:21:05.507Z,1020.0
2017-07-04T07:22:07.353Z,1020.1
2017-07-04T07:23:08.758Z,1020.1
2017-07-04T07:24:10.164Z,1020.1
2017-07-04T07:25:11.567Z,1020.1
2017-07-04T07:26:12.964Z,1020.1
2017-07-04T07:27:14.373Z,1020.1
2017-07-04T07:28:15.781Z,1020.1
2017-07-04T07:29:17.186Z,1020.1
2017-07-04T07:30:18.588Z,1020.2
2017-07-04T07:31:19.993Z,1020.1
2017-07-04T07:32:21.397Z,1020.2
2017-07-04T07:33:23.301Z,1020.1
2017-07-04T07:34:25.203Z,1020.1
2017-07-04T07:35:26.606Z,1020.1
2017-07-04T07:36:28.007Z,1020.1
2017-07-04T07:37:29.427Z,1020.2
2017-07-04T07:38:30.831Z,1020.2
2017-07-04T07:39:32.235Z,1020.2
2017-07-04T07:40:33.635Z,1020.2
2017-07-04T07:41:35.040Z,1020.2
2017-07-04T07:42:36.447Z,1020.2
2017-07-04T07:43:37.853Z,1020.2
2017-07-04T07:44:39.255Z,1020.2
2017-07-04T07:45:40.660Z,1020.2
2017-07-04T07:46:42.458Z,1020.2
2017-07-04T07:47:43.922Z,1020.2
2017-07-04T07:48:45.329Z,1020.2
2017-07-04T07:49:46.731Z,1020.2
2017-07-04T07:50:48.135Z,1020.2
2017-07-04T07:51:49.539Z,1020.2
2017-07-04T07:52:50.943Z,1020.2
2017-07-04T07:53:52.349Z,1020.2
2017-07-04T07:54:53.752Z,1020.2
2017-07-04T07:55:56.015Z,1020.1
2017-07-04T07:56:58.101Z,1020.1
2017-07-04T07:57:59.559Z,1020.1
2017-07-04T07:59:00.911Z,1020.1
2017-07-04T08:00:02.317Z,1020.1
2017-07-04T08:01:03.722Z,1020.0
2017-07-04T08:02:05.123Z,1020.0
2017-07-04T08:03:06.526Z,1020.0
2017-07-04T08:04:07.929Z,1020.0
2017-07-04T08:05:09.333Z,1020.0
2017-07-04T08:06:10.737Z,1020.0
2017-07-04T08:07:12.143Z,1020.0
2017-07-04T08:08:14.032Z,1020.0
2017-07-04T08:09:16.293Z,1020.0
2017-07-04T08:10:17.694Z,1020.0
2017-07-04T08:11:19.097Z,1020.1
2017-07-04T08:12:20.502Z,1020.1
2017-07-04T08:13:21.906Z,1020.1
2017-07-04T08:14:23.311Z,1020.1
2017-07-04T08:15:24.715Z,1020.2
2017-07-04T08:16:26.118Z,1020.1
2017-07-04T08:17:27.519Z,1020.2
2017-07-04T08:18:28.935Z,1020.1
2017-07-04T08:19:30.333Z,1020.2
2017-07-04T08:20:32.230Z,1020.1
2017-07-04T08:21:34.327Z,1020.2
2017-07-04T08:22:35.731Z,1020.2
2017-07-04T08:23:37.135Z,1020.1
2017-07-04T08:24:38.535Z,1020.2
2017-07-04T08:25:39.937Z,1020.1
2017-07-04T08:26:41.342Z,1020.1
2017-07-04T08:27:42.744Z,1020.2
2017-07-04T08:28:44.149Z,1020.2
2017-07-04T08:29:45.556Z,1020.2
2017-07-04T08:30:46.957Z,1020.2
2017-07-04T08:31:49.074Z,1020.2
2017-07-04T08:32:50.475Z,1020.2
2017-07-04T08:33:51.881Z,1020.1
2017-07-04T08:34:53.283Z,1020.1
2017-07-04T08:35:54.687Z,1020.1
2017-07-04T08:36:56.093Z,1020.1
2017-07-04T08:37:57.496Z,1020.1
2017-07-04T08:38:58.896Z,1020.1
2017-07-04T08:40:00.302Z,1020.1
2017-07-04T08:41:01.705Z,1020.1
2017-07-04T08:42:03.109Z,1020.1
2017-07-04T08:43:04.512Z,1020.1
2017-07-04T08:44:06.600Z,1020.1
2017-07-04T08:45:08.001Z,1020.1
2017-07-04T08:46:09.403Z,1020.1
2017-07-04T08:47:10.808Z,1020.1
2017-07-04T08:48:12.212Z,1020.2
2017-07-04T08:49:13.624Z,1020.2
2017-07-04T08:50:15.029Z,1020.2
2017-07-04T08:51:16.435Z,1020.2
2017-07-04T08:52:17.842Z,1020.2
2017-07-04T08:53:19.243Z,1020.2
2017-07-04T08:54:20.647Z,1020.2
2017-07-04T08:55:22.053Z,1020.2
2017-07-04T08:56:24.232Z,1020.1
2017-07-04T08:57:25.639Z,1020.1
2017-07-04T08:58:27.044Z,1020.1
2017-07-04T08:59:28.450Z,1020.1
2017-07-04T09:00:29.851Z,1020.1
2017-07-04T09:01:31.252Z,1020.1
2017-07-04T09:02:32.657Z,1020.1
2017-07-04T09:03:34.063Z,1020.1
2017-07-04T09:04:35.468Z,1020.1
2017-07-04T09:05:36.873Z,1020.1
2017-07-04T09:06:38.278Z,1020.1
2017-07-04T09:07:39.677Z,1020.1
2017-07-04T09:08:41.080Z,1020.0
2017-07-04T09:09:42.484Z,1020.0
2017-07-04T09:10:43.887Z,1020.0
2017-07-04T09:11:45.295Z,1020.0
2017-07-04T09:12:46.701Z,1020.1
2017-07-04T09:13:48.104Z,1020.0
2017-07-04T09:14:49.506Z,1020.0
2017-07-04T09:15:50.910Z,1020.0
2017-07-04T09:16:52.312Z,1020.0
2017-07-04T09:17:54.211Z,1020.0
2017-07-04T09:18:56.298Z,1020.0
2017-07-04T09:19:57.702Z,1020.0
2017-07-04T09:20:59.106Z,1020.0
2017-07-04T09:22:00.511Z,1020.1
2017-07-04T09:23:01.912Z,1020.1
2017-07-04T09:24:03.323Z,1020.0
2017-07-04T09:25:04.727Z,1020.0
2017-07-04T09:26:06.132Z,1020.1
2017-07-04T09:27:07.541Z,1020.1
2017-07-04T09:28:08.942Z,1020.1
2017-07-04T09:29:10.347Z,1020.0
2017-07-04T09:30:12.234Z,1020.0
2017-07-04T09:31:14.028Z,1020.0
2017-07-04T09:32:15.434Z,1020.0
2017-07-04T09:33:16.855Z,1020.0
2017-07-04T09:34:18.256Z,1020.0
2017-07-04T09:35:19.657Z,1020.0
2017-07-04T09:36:21.058Z,1020.0
2017-07-04T09:37:22.462Z,1020.0
2017-07-04T09:38:23.866Z,1020.0
2017-07-04T09:39:25.270Z,1020.0
2017-07-04T09:40:26.677Z,1020.0
2017-07-04T09:41:28.079Z,1020.0
2017-07-04T09:42:30.202Z,1020.0
2017-07-04T09:43:32.247Z,1020.0
2017-07-04T09:44:33.650Z,1020.0
2017-07-04T09:45:35.052Z,1020.0
2017-07-04T09:46:36.456Z,1020.0
2017-07-04T09:47:37.874Z,1019.9
2017-07-04T09:48:39.265Z,1020.0
2017-07-04T09:49:40.669Z,1020.0
2017-07-04T09:50:42.071Z,1019.9
2017-07-04T09:51:43.473Z,1020.0
2017-07-04T09:52:44.877Z,1020.0
2017-07-04T09:53:46.280Z,1019.9
2017-07-04T09:54:47.684Z,1019.9
2017-07-04T09:55:49.962Z,1019.9
2017-07-04T09:56:51.366Z,1020.0
2017-07-04T09:57:52.767Z,1019.9
2017-07-04T09:58:54.169Z,1019.9
2017-07-04T09:59:55.580Z,1019.9
2017-07-04T10:00:56.997Z,1020.0
2017-07-04T10:01:58.407Z,1019.9
2017-07-04T10:02:59.818Z,1019.9
2017-07-04T10:04:01.216Z,1019.9
2017-07-04T10:05:03.122Z,1020.0
2017-07-04T10:06:04.523Z,1019.9
2017-07-04T10:07:05.928Z,1019.9
2017-07-04T10:08:07.334Z,1019.9
2017-07-04T10:09:08.738Z,1019.9
2017-07-04T10:10:10.142Z,1019.9
2017-07-04T10:11:11.544Z,1019.8
2017-07-04T10:12:12.946Z,1019.8
2017-07-04T10:13:14.348Z,1019.8
2017-07-04T10:14:15.754Z,1019.8
2017-07-04T10:15:17.157Z,1019.8
2017-07-04T10:16:18.563Z,1019.8
2017-07-04T10:17:20.448Z,1019.8
2017-07-04T10:18:21.851Z,1019.8
2017-07-04T10:19:23.254Z,1019.8
2017-07-04T10:20:24.656Z,1019.8
2017-07-04T10:21:26.060Z,1019.8
2017-07-04T10:22:27.467Z,1019.8
2017-07-04T10:23:28.871Z,1019.8
2017-07-04T10:24:30.279Z,1019.8
2017-07-04T10:25:31.697Z,1019.7
2017-07-04T10:26:33.099Z,1019.7
2017-07-04T10:27:34.502Z,1019.8
2017-07-04T10:28:35.911Z,1019.7
2017-07-04T10:29:37.800Z,1019.8
2017-07-04T10:30:39.204Z,1019.7
2017-07-04T10:31:40.609Z,1019.8
2017-07-04T10:32:42.012Z,1019.8
2017-07-04T10:33:43.414Z,1019.8
2017-07-04T10:34:44.817Z,1019.7
2017-07-04T10:35:46.221Z,1019.8
2017-07-04T10:36:47.626Z,1019.7
2017-07-04T10:37:49.031Z,1019.7
2017-07-04T10:38:50.436Z,1019.7
2017-07-04T10:39:51.839Z,1019.7
2017-07-04T10:40:54.144Z,1019.7
2017-07-04T10:41:55.621Z,1019.7
2017-07-04T10:42:57.023Z,1019.7
2017-07-04T10:43:58.425Z,1019.7
2017-07-04T10:44:59.830Z,1019.7
2017-07-04T10:46:01.234Z,1019.7
2017-07-04T10:47:02.644Z,1019.7
2017-07-04T10:48:04.054Z,1019.7
2017-07-04T10:49:05.455Z,1019.7
2017-07-04T10:50:06.860Z,1019.7
2017-07-04T10:51:08.266Z,1019.7
2017-07-04T10:52:10.180Z,1019.7
2017-07-04T10:53:11.574Z,1019.7
2017-07-04T10:54:12.977Z,1019.6
2017-07-04T10:55:14.380Z,1019.6
2017-07-04T10:56:15.780Z,1019.6
2017-07-04T10:57:17.185Z,1019.6
2017-07-04T10:58:18.588Z,1019.6
2017-07-04T10:59:19.994Z,1019.6
2017-07-04T11:00:22.013Z,1019.5
2017-07-04T11:01:23.415Z,1019.5
2017-07-04T11:02:24.819Z,1019.6
2017-07-04T11:03:26.221Z,1019.6
2017-07-04T11:04:28.134Z,1019.6
2017-07-04T11:05:29.545Z,1019.6
2017-07-04T11:06:30.947Z,1019.6
2017-07-04T11:07:32.350Z,1019.6
2017-07-04T11:08:33.752Z,1019.5
2017-07-04T11:09:35.159Z,1019.5
2017-07-04T11:10:36.558Z,1019.5
2017-07-04T11:11:37.966Z,1019.6
2017-07-04T11:12:39.366Z,1019.5
2017-07-04T11:13:40.773Z,1019.5
2017-07-04T11:14:42.178Z,1019.5
2017-07-04T11:15:43.593Z,1019.5
2017-07-04T11:16:45.479Z,1019.5
2017-07-04T11:17:46.901Z,1019.4
2017-07-04T11:18:48.302Z,1019.4
2017-07-04T11:19:49.705Z,1019.5
2017-07-04T11:20:51.112Z,1019.5
2017-07-04T11:21:52.517Z,1019.5
2017-07-04T11:22:53.921Z,1019.5
2017-07-04T11:23:55.325Z,1019.5
2017-07-04T11:24:56.731Z,1019.5
2017-07-04T11:25:58.134Z,1019.4
2017-07-04T11:27:00.023Z,1019.4
2017-07-04T11:28:01.426Z,1019.4
2017-07-04T11:29:02.835Z,1019.4
2017-07-04T11:30:04.237Z,1019.5
2017-07-04T11:31:05.641Z,1019.5
2017-07-04T11:32:07.042Z,1019.5
2017-07-04T11:33:08.448Z,1019.5
2017-07-04T11:34:09.851Z,1019.5
2017-07-04T11:35:11.256Z,1019.5
2017-07-04T11:36:12.660Z,1019.5
2017-07-04T11:37:14.062Z,1019.5
2017-07-04T11:38:15.465Z,1019.5
2017-07-04T11:39:17.438Z,1019.5
2017-07-04T11:40:18.835Z,1019.5
2017-07-04T11:41:20.239Z,1019.5
2017-07-04T11:42:21.643Z,1019.5
2017-07-04T11:43:23.054Z,1019.6
2017-07-04T11:44:24.452Z,1019.5
2017-07-04T11:45:25.855Z,1019.5
2017-07-04T11:46:27.257Z,1019.5
2017-07-04T11:47:28.662Z,1019.5
2017-07-04T11:48:30.067Z,1019.6
2017-07-04T11:49:31.471Z,1019.6
2017-07-04T11:50:32.876Z,1019.6
2017-07-04T11:51:34.730Z,1019.6
2017-07-04T11:52:36.132Z,1019.5
2017-07-04T11:53:37.535Z,1019.6
2017-07-04T11:54:38.937Z,1019.6
2017-07-04T11:55:40.340Z,1019.5
2017-07-04T11:56:41.749Z,1019.6
2017-07-04T11:57:43.153Z,1019.6
2017-07-04T11:58:44.553Z,1019.5
2017-07-04T11:59:45.959Z,1019.5
2017-07-04T12:00:47.363Z,1019.5
2017-07-04T12:01:48.768Z,1019.5
2017-07-04T12:02:50.171Z,1019.6
2017-07-04T12:03:52.060Z,1019.5
2017-07-04T12:04:53.467Z,1019.6
2017-07-04T12:05:54.871Z,1019.6
2017-07-04T12:06:56.277Z,1019.6
2017-07-04T12:07:57.679Z,1019.6
2017-07-04T12:08:59.081Z,1019.6
2017-07-04T12:10:00.492Z,1019.6
2017-07-04T12:11:01.901Z,1019.6
2017-07-04T12:12:03.301Z,1019.6
2017-07-04T12:13:04.702Z,1019.6
2017-07-04T12:14:06.799Z,1019.6
2017-07-04T12:15:08.198Z,1019.6
2017-07-04T12:16:09.605Z,1019.5
2017-07-04T12:17:11.009Z,1019.6
2017-07-04T12:18:12.415Z,1019.6
2017-07-04T12:19:13.821Z,1019.6
2017-07-04T12:20:15.222Z,1019.6
2017-07-04T12:21:16.626Z,1019.6
2017-07-04T12:22:18.038Z,1019.6
2017-07-04T12:23:19.440Z,1019.6
2017-07-04T12:24:20.845Z,1019.6
2017-07-04T12:25:22.897Z,1019.6
2017-07-04T12:26:24.803Z,1019.6
2017-07-04T12:27:26.204Z,1019.5
2017-07-04T12:28:27.606Z,1019.5
2017-07-04T12:29:29.009Z,1019.6
2017-07-04T12:30:30.411Z,1019.6
2017-07-04T12:31:31.815Z,1019.6
2017-07-04T12:32:33.221Z,1019.5
2017-07-04T12:33:34.627Z,1019.5
2017-07-04T12:34:36.029Z,1019.5
2017-07-04T12:35:37.432Z,1019.5
2017-07-04T12:36:38.835Z,1019.5
2017-07-04T12:37:41.283Z,1019.6
2017-07-04T12:38:42.687Z,1019.5
2017-07-04T12:39:44.091Z,1019.5
2017-07-04T12:40:45.497Z,1019.6
2017-07-04T12:41:46.900Z,1019.6
2017-07-04T12:42:48.303Z,1019.6
2017-07-04T12:43:49.705Z,1019.5
2017-07-04T12:44:51.112Z,1019.5
2017-07-04T12:45:52.515Z,1019.6
2017-07-04T12:46:53.924Z,1019.5